Rockford, MI (49341)

12:55 AM EDT on August 30, 2015 (GMT -0400)
Cannon Twp-Tillicum Farms | | Change Station
CLOSE
Current Station
Personal Weather Station
Location: Rockford, MI
Elevation: 873 ft
Nearby Weather Stations

Elev 873 ft 43.09 °N, 85.47 °W | Updated 2 minutes ago

Overcast
Overcast
64.2 °F
Feels Like 64.2 °F
N
0.0
Wind Variable Wind from ESE

Today
High -- | Low -- °F
--% Chance of Precip.
Yesterday
High -- | Low -- °F
Precip. -- in
7:03 AM 8:20 PM
Full, 100% visible
Pressure 30.04 in
Visibility 2.5 miles
Clouds Few 1500 ft
Mostly Cloudy 2500 ft
Overcast 3000 ft
Dew Point 63 °F
Humidity 94%
Rainfall 0.00 in
Snow Depth Not available.
UV 0.0 out of 12
Pollen 7.60 out of 12
Air Quality Not available.
Flu Activity Not available.
METAR KGRR 300453Z AUTO 06004KT 2 1/2SM BR FEW015 BKN025 OVC030 19/18 A3005 RMK AO2 RAB31E53 SLP172 P0001 T01890183 402000161
Pressure 30.04 in
Visibility 2.5 miles
Clouds Few 1500 ft
Mostly Cloudy 2500 ft
Overcast 3000 ft
Dew Point 63 °F
Humidity 94%
Rainfall 0.00 in
Snow Depth Not available.
UV 0.0 out of 12
Pollen 7.60 out of 12
Air Quality Not available.
Flu Activity Not available.
METAR KGRR 300453Z AUTO 06004KT 2 1/2SM BR FEW015 BKN025 OVC030 19/18 A3005 RMK AO2 RAB31E53 SLP172 P0001 T01890183 402000161

10-Day Weather Forecast

×

Almanac

Astronomy

Aug. 30, 2015 Rise Set
Actual Time
Civil Twilight
Nautical Twilight
Astronomical Twilight
Moon
Length of Visible Light
Length of Day
Tomorrow will be .
, % of the Moon is Illuminated

Today's Extremes

State Highs State Lows

Community

WunderPhotos

Upload Photos

1,850,887 photos uploaded!

WunderBlogs® & News

Nearby

Air Quality

  Air Quality AQ Index Pollutant
Not available.

Snow Depth

Station Depth Elevation

Earthquake Activity

City Distance Mag. Time & Date
Minimum magnitude displayed is 2.5.

Coastal Water Temperatures

Place Temperature

Stations

Nearby Weather Stations

Station Location Temp. Windchill Dew Point Humidity Wind Precip. Elev Updated Type